<?xml version="1.0" encoding="UTF-8" standalone="no" ?>
<gpx xmlns="http://www.topografix.com/GPX/1/1" xmlns:xsi="http://www.w3.org/2001/XMLSchema-instance" xsi:schemaLocation="http://www.topografix.com/GPX/1/1 http://www.topografix.com/GPX/1/1/gpx.xsd" version="1.1" creator="VisuGPX - https://www.visugpx.com">
  <metadata>
    <name>Drailles de sault</name>
    <desc><![CDATA[Randonnée les Drailles de Sault 2015 - 45Km
Départ de Sault, beau parcours]]></desc>
  </metadata>
  <trk>
    <name><![CDATA[--Sault-- OR-5326807:circuit 03 44 KM]]></name>
    <trkseg>
      <trkpt lat="44.09062" lon="5.41618">
        <ele>794</ele>
        <time>2015-10-31T20:38:46Z</time>
      </trkpt>
      <trkpt lat="44.09047" lon="5.42068">
        <ele>790</ele>
        <time>2015-10-31T20:40:46Z</time>
      </trkpt>
      <trkpt lat="44.08845" lon="5.42219">
        <ele>786</ele>
        <time>2015-10-31T20:42:46Z</time>
      </trkpt>
      <trkpt lat="44.08822" lon="5.42266">
        <ele>784</ele>
        <time>2015-10-31T20:44:46Z</time>
      </trkpt>
      <trkpt lat="44.08695" lon="5.42272">
        <ele>767</ele>
        <time>2015-10-31T20:46:46Z</time>
      </trkpt>
      <trkpt lat="44.08728" lon="5.42316">
        <ele>768</ele>
        <time>2015-10-31T20:48:46Z</time>
      </trkpt>
      <trkpt lat="44.08753" lon="5.4236">
        <ele>768</ele>
        <time>2015-10-31T20:50:46Z</time>
      </trkpt>
      <trkpt lat="44.08743" lon="5.42416">
        <ele>764</ele>
        <time>2015-10-31T20:52:46Z</time>
      </trkpt>
      <trkpt lat="44.08706" lon="5.42453">
        <ele>754</ele>
        <time>2015-10-31T20:54:46Z</time>
      </trkpt>
      <trkpt lat="44.08699" lon="5.42486">
        <ele>750</ele>
        <time>2015-10-31T20:56:46Z</time>
      </trkpt>
      <trkpt lat="44.08716" lon="5.42522">
        <ele>747</ele>
        <time>2015-10-31T20:58:46Z</time>
      </trkpt>
      <trkpt lat="44.08683" lon="5.42511">
        <ele>745</ele>
        <time>2015-10-31T21:00:46Z</time>
      </trkpt>
      <trkpt lat="44.08648" lon="5.42463">
        <ele>743</ele>
        <time>2015-10-31T21:02:46Z</time>
      </trkpt>
      <trkpt lat="44.08649" lon="5.42523">
        <ele>740</ele>
        <time>2015-10-31T21:04:46Z</time>
      </trkpt>
      <trkpt lat="44.08667" lon="5.42576">
        <ele>735</ele>
        <time>2015-10-31T21:06:46Z</time>
      </trkpt>
      <trkpt lat="44.08596" lon="5.42544">
        <ele>732</ele>
        <time>2015-10-31T21:08:46Z</time>
      </trkpt>
      <trkpt lat="44.08525" lon="5.42542">
        <ele>726</ele>
        <time>2015-10-31T21:10:46Z</time>
      </trkpt>
      <trkpt lat="44.08526" lon="5.42622">
        <ele>725</ele>
        <time>2015-10-31T21:12:46Z</time>
      </trkpt>
      <trkpt lat="44.08531" lon="5.42704">
        <ele>725</ele>
        <time>2015-10-31T21:14:46Z</time>
      </trkpt>
      <trkpt lat="44.08519" lon="5.42738">
        <ele>725</ele>
        <time>2015-10-31T21:16:46Z</time>
      </trkpt>
      <trkpt lat="44.08438" lon="5.42803">
        <ele>736</ele>
        <time>2015-10-31T21:18:46Z</time>
      </trkpt>
      <trkpt lat="44.08418" lon="5.42832">
        <ele>738</ele>
        <time>2015-10-31T21:20:46Z</time>
      </trkpt>
      <trkpt lat="44.08418" lon="5.42862">
        <ele>738</ele>
        <time>2015-10-31T21:22:46Z</time>
      </trkpt>
      <trkpt lat="44.08415" lon="5.42894">
        <ele>738</ele>
        <time>2015-10-31T21:24:46Z</time>
      </trkpt>
      <trkpt lat="44.0839" lon="5.42947">
        <ele>743</ele>
        <time>2015-10-31T21:26:46Z</time>
      </trkpt>
      <trkpt lat="44.08382" lon="5.42977">
        <ele>745</ele>
        <time>2015-10-31T21:28:46Z</time>
      </trkpt>
      <trkpt lat="44.08371" lon="5.43011">
        <ele>748</ele>
        <time>2015-10-31T21:30:46Z</time>
      </trkpt>
      <trkpt lat="44.08347" lon="5.43056">
        <ele>754</ele>
        <time>2015-10-31T21:32:46Z</time>
      </trkpt>
      <trkpt lat="44.08323" lon="5.43066">
        <ele>758</ele>
        <time>2015-10-31T21:34:46Z</time>
      </trkpt>
      <trkpt lat="44.08291" lon="5.43047">
        <ele>762</ele>
        <time>2015-10-31T21:36:46Z</time>
      </trkpt>
      <trkpt lat="44.08236" lon="5.42956">
        <ele>769</ele>
        <time>2015-10-31T21:38:46Z</time>
      </trkpt>
      <trkpt lat="44.08168" lon="5.4285">
        <ele>785</ele>
        <time>2015-10-31T21:40:46Z</time>
      </trkpt>
      <trkpt lat="44.08149" lon="5.42825">
        <ele>789</ele>
        <time>2015-10-31T21:42:46Z</time>
      </trkpt>
      <trkpt lat="44.08028" lon="5.42839">
        <ele>801</ele>
        <time>2015-10-31T21:44:46Z</time>
      </trkpt>
      <trkpt lat="44.07898" lon="5.42885">
        <ele>804</ele>
        <time>2015-10-31T21:46:46Z</time>
      </trkpt>
      <trkpt lat="44.07832" lon="5.42917">
        <ele>808</ele>
        <time>2015-10-31T21:48:46Z</time>
      </trkpt>
      <trkpt lat="44.0774" lon="5.42901">
        <ele>810</ele>
        <time>2015-10-31T21:50:46Z</time>
      </trkpt>
      <trkpt lat="44.07523" lon="5.42924">
        <ele>819</ele>
        <time>2015-10-31T21:52:46Z</time>
      </trkpt>
      <trkpt lat="44.0756" lon="5.4286">
        <ele>817</ele>
        <time>2015-10-31T21:54:46Z</time>
      </trkpt>
      <trkpt lat="44.07582" lon="5.42803">
        <ele>815</ele>
        <time>2015-10-31T21:56:46Z</time>
      </trkpt>
      <trkpt lat="44.07589" lon="5.42772">
        <ele>815</ele>
        <time>2015-10-31T21:58:46Z</time>
      </trkpt>
      <trkpt lat="44.07674" lon="5.42658">
        <ele>809</ele>
        <time>2015-10-31T22:00:46Z</time>
      </trkpt>
      <trkpt lat="44.07711" lon="5.4259">
        <ele>805</ele>
        <time>2015-10-31T22:02:46Z</time>
      </trkpt>
      <trkpt lat="44.07723" lon="5.42538">
        <ele>802</ele>
        <time>2015-10-31T22:04:46Z</time>
      </trkpt>
      <trkpt lat="44.07741" lon="5.42481">
        <ele>800</ele>
        <time>2015-10-31T22:06:46Z</time>
      </trkpt>
      <trkpt lat="44.07752" lon="5.42442">
        <ele>799</ele>
        <time>2015-10-31T22:08:46Z</time>
      </trkpt>
      <trkpt lat="44.07755" lon="5.42407">
        <ele>799</ele>
        <time>2015-10-31T22:10:46Z</time>
      </trkpt>
      <trkpt lat="44.07764" lon="5.42375">
        <ele>798</ele>
        <time>2015-10-31T22:12:46Z</time>
      </trkpt>
      <trkpt lat="44.07798" lon="5.42272">
        <ele>799</ele>
        <time>2015-10-31T22:14:46Z</time>
      </trkpt>
      <trkpt lat="44.07834" lon="5.42205">
        <ele>799</ele>
        <time>2015-10-31T22:16:46Z</time>
      </trkpt>
      <trkpt lat="44.07893" lon="5.42168">
        <ele>796</ele>
        <time>2015-10-31T22:18:46Z</time>
      </trkpt>
      <trkpt lat="44.07933" lon="5.42126">
        <ele>792</ele>
        <time>2015-10-31T22:20:46Z</time>
      </trkpt>
      <trkpt lat="44.07988" lon="5.42041">
        <ele>787</ele>
        <time>2015-10-31T22:22:46Z</time>
      </trkpt>
      <trkpt lat="44.08026" lon="5.41955">
        <ele>782</ele>
        <time>2015-10-31T22:24:46Z</time>
      </trkpt>
      <trkpt lat="44.08088" lon="5.41864">
        <ele>784</ele>
        <time>2015-10-31T22:26:46Z</time>
      </trkpt>
      <trkpt lat="44.08163" lon="5.41786">
        <ele>788</ele>
        <time>2015-10-31T22:28:46Z</time>
      </trkpt>
      <trkpt lat="44.08306" lon="5.41687">
        <ele>786</ele>
        <time>2015-10-31T22:30:46Z</time>
      </trkpt>
      <trkpt lat="44.08406" lon="5.41571">
        <ele>780</ele>
        <time>2015-10-31T22:32:46Z</time>
      </trkpt>
      <trkpt lat="44.0848" lon="5.4143">
        <ele>774</ele>
        <time>2015-10-31T22:34:46Z</time>
      </trkpt>
      <trkpt lat="44.0832" lon="5.41506">
        <ele>787</ele>
        <time>2015-10-31T22:36:46Z</time>
      </trkpt>
      <trkpt lat="44.08138" lon="5.41547">
        <ele>790</ele>
        <time>2015-10-31T22:38:46Z</time>
      </trkpt>
      <trkpt lat="44.08245" lon="5.41385">
        <ele>787</ele>
        <time>2015-10-31T22:40:46Z</time>
      </trkpt>
      <trkpt lat="44.0832" lon="5.41174">
        <ele>778</ele>
        <time>2015-10-31T22:42:46Z</time>
      </trkpt>
      <trkpt lat="44.08214" lon="5.41257">
        <ele>771</ele>
        <time>2015-10-31T22:44:46Z</time>
      </trkpt>
      <trkpt lat="44.08117" lon="5.41354">
        <ele>765</ele>
        <time>2015-10-31T22:46:46Z</time>
      </trkpt>
      <trkpt lat="44.0805" lon="5.41425">
        <ele>768</ele>
        <time>2015-10-31T22:48:46Z</time>
      </trkpt>
      <trkpt lat="44.07865" lon="5.41514">
        <ele>759</ele>
        <time>2015-10-31T22:50:46Z</time>
      </trkpt>
      <trkpt lat="44.0781" lon="5.41552">
        <ele>761</ele>
        <time>2015-10-31T22:52:46Z</time>
      </trkpt>
      <trkpt lat="44.0774" lon="5.41587">
        <ele>763</ele>
        <time>2015-10-31T22:54:46Z</time>
      </trkpt>
      <trkpt lat="44.0771" lon="5.41606">
        <ele>767</ele>
        <time>2015-10-31T22:56:46Z</time>
      </trkpt>
      <trkpt lat="44.07676" lon="5.41639">
        <ele>768</ele>
        <time>2015-10-31T22:58:46Z</time>
      </trkpt>
      <trkpt lat="44.07667" lon="5.41691">
        <ele>767</ele>
        <time>2015-10-31T23:00:46Z</time>
      </trkpt>
      <trkpt lat="44.07636" lon="5.41708">
        <ele>770</ele>
        <time>2015-10-31T23:02:46Z</time>
      </trkpt>
      <trkpt lat="44.07614" lon="5.41711">
        <ele>771</ele>
        <time>2015-10-31T23:04:46Z</time>
      </trkpt>
      <trkpt lat="44.0759" lon="5.4178">
        <ele>771</ele>
        <time>2015-10-31T23:06:46Z</time>
      </trkpt>
      <trkpt lat="44.07559" lon="5.4181">
        <ele>773</ele>
        <time>2015-10-31T23:08:46Z</time>
      </trkpt>
      <trkpt lat="44.07523" lon="5.4183">
        <ele>773</ele>
        <time>2015-10-31T23:10:46Z</time>
      </trkpt>
      <trkpt lat="44.07475" lon="5.41886">
        <ele>779</ele>
        <time>2015-10-31T23:12:46Z</time>
      </trkpt>
      <trkpt lat="44.07365" lon="5.41962">
        <ele>782</ele>
        <time>2015-10-31T23:14:46Z</time>
      </trkpt>
      <trkpt lat="44.07278" lon="5.42025">
        <ele>782</ele>
        <time>2015-10-31T23:16:46Z</time>
      </trkpt>
      <trkpt lat="44.07209" lon="5.42058">
        <ele>782</ele>
        <time>2015-10-31T23:18:46Z</time>
      </trkpt>
      <trkpt lat="44.07175" lon="5.42001">
        <ele>785</ele>
        <time>2015-10-31T23:20:46Z</time>
      </trkpt>
      <trkpt lat="44.0716" lon="5.41956">
        <ele>794</ele>
        <time>2015-10-31T23:22:46Z</time>
      </trkpt>
      <trkpt lat="44.07137" lon="5.419">
        <ele>805</ele>
        <time>2015-10-31T23:24:46Z</time>
      </trkpt>
      <trkpt lat="44.07114" lon="5.41829">
        <ele>813</ele>
        <time>2015-10-31T23:26:46Z</time>
      </trkpt>
      <trkpt lat="44.07086" lon="5.41773">
        <ele>816</ele>
        <time>2015-10-31T23:28:46Z</time>
      </trkpt>
      <trkpt lat="44.07061" lon="5.41711">
        <ele>826</ele>
        <time>2015-10-31T23:30:46Z</time>
      </trkpt>
      <trkpt lat="44.07035" lon="5.41599">
        <ele>834</ele>
        <time>2015-10-31T23:32:46Z</time>
      </trkpt>
      <trkpt lat="44.07031" lon="5.41548">
        <ele>837</ele>
        <time>2015-10-31T23:34:46Z</time>
      </trkpt>
      <trkpt lat="44.07018" lon="5.41481">
        <ele>839</ele>
        <time>2015-10-31T23:36:46Z</time>
      </trkpt>
      <trkpt lat="44.07001" lon="5.41428">
        <ele>839</ele>
        <time>2015-10-31T23:38:46Z</time>
      </trkpt>
      <trkpt lat="44.06939" lon="5.414">
        <ele>845</ele>
        <time>2015-10-31T23:40:46Z</time>
      </trkpt>
      <trkpt lat="44.06881" lon="5.41361">
        <ele>853</ele>
        <time>2015-10-31T23:42:46Z</time>
      </trkpt>
      <trkpt lat="44.06799" lon="5.41284">
        <ele>866</ele>
        <time>2015-10-31T23:44:46Z</time>
      </trkpt>
      <trkpt lat="44.0677" lon="5.41245">
        <ele>869</ele>
        <time>2015-10-31T23:46:46Z</time>
      </trkpt>
      <trkpt lat="44.06846" lon="5.41265">
        <ele>864</ele>
        <time>2015-10-31T23:48:46Z</time>
      </trkpt>
      <trkpt lat="44.06927" lon="5.41255">
        <ele>863</ele>
        <time>2015-10-31T23:50:46Z</time>
      </trkpt>
      <trkpt lat="44.06964" lon="5.41202">
        <ele>866</ele>
        <time>2015-10-31T23:52:46Z</time>
      </trkpt>
      <trkpt lat="44.07016" lon="5.41155">
        <ele>868</ele>
        <time>2015-10-31T23:54:46Z</time>
      </trkpt>
      <trkpt lat="44.0704" lon="5.41126">
        <ele>870</ele>
        <time>2015-10-31T23:56:46Z</time>
      </trkpt>
      <trkpt lat="44.07053" lon="5.41102">
        <ele>871</ele>
        <time>2015-10-31T23:58:46Z</time>
      </trkpt>
      <trkpt lat="44.07034" lon="5.41056">
        <ele>873</ele>
        <time>2015-11-01T00:00:46Z</time>
      </trkpt>
      <trkpt lat="44.06965" lon="5.41037">
        <ele>879</ele>
        <time>2015-11-01T00:02:46Z</time>
      </trkpt>
      <trkpt lat="44.06861" lon="5.40969">
        <ele>892</ele>
        <time>2015-11-01T00:04:46Z</time>
      </trkpt>
      <trkpt lat="44.06749" lon="5.40942">
        <ele>907</ele>
        <time>2015-11-01T00:06:46Z</time>
      </trkpt>
      <trkpt lat="44.06664" lon="5.40909">
        <ele>914</ele>
        <time>2015-11-01T00:08:46Z</time>
      </trkpt>
      <trkpt lat="44.06544" lon="5.40937">
        <ele>928</ele>
        <time>2015-11-01T00:10:46Z</time>
      </trkpt>
      <trkpt lat="44.06501" lon="5.40954">
        <ele>932</ele>
        <time>2015-11-01T00:12:46Z</time>
      </trkpt>
      <trkpt lat="44.06439" lon="5.40945">
        <ele>942</ele>
        <time>2015-11-01T00:14:46Z</time>
      </trkpt>
      <trkpt lat="44.0636" lon="5.40958">
        <ele>954</ele>
        <time>2015-11-01T00:16:46Z</time>
      </trkpt>
      <trkpt lat="44.06295" lon="5.41098">
        <ele>966</ele>
        <time>2015-11-01T00:18:46Z</time>
      </trkpt>
      <trkpt lat="44.0624" lon="5.41169">
        <ele>971</ele>
        <time>2015-11-01T00:20:46Z</time>
      </trkpt>
      <trkpt lat="44.06168" lon="5.41179">
        <ele>981</ele>
        <time>2015-11-01T00:22:46Z</time>
      </trkpt>
      <trkpt lat="44.0606" lon="5.41177">
        <ele>995</ele>
        <time>2015-11-01T00:24:46Z</time>
      </trkpt>
      <trkpt lat="44.05933" lon="5.4122">
        <ele>1005</ele>
        <time>2015-11-01T00:26:46Z</time>
      </trkpt>
      <trkpt lat="44.05912" lon="5.41235">
        <ele>1004</ele>
        <time>2015-11-01T00:28:46Z</time>
      </trkpt>
      <trkpt lat="44.0575" lon="5.41218">
        <ele>1015</ele>
        <time>2015-11-01T00:30:46Z</time>
      </trkpt>
      <trkpt lat="44.05636" lon="5.41188">
        <ele>1021</ele>
        <time>2015-11-01T00:32:46Z</time>
      </trkpt>
      <trkpt lat="44.05576" lon="5.41178">
        <ele>1018</ele>
        <time>2015-11-01T00:34:46Z</time>
      </trkpt>
      <trkpt lat="44.05475" lon="5.41187">
        <ele>1019</ele>
        <time>2015-11-01T00:36:46Z</time>
      </trkpt>
      <trkpt lat="44.05425" lon="5.41167">
        <ele>1019</ele>
        <time>2015-11-01T00:38:46Z</time>
      </trkpt>
      <trkpt lat="44.05381" lon="5.41141">
        <ele>1019</ele>
        <time>2015-11-01T00:40:46Z</time>
      </trkpt>
      <trkpt lat="44.05341" lon="5.41094">
        <ele>1018</ele>
        <time>2015-11-01T00:42:46Z</time>
      </trkpt>
      <trkpt lat="44.05253" lon="5.4106">
        <ele>1018</ele>
        <time>2015-11-01T00:44:46Z</time>
      </trkpt>
      <trkpt lat="44.05088" lon="5.41041">
        <ele>1024</ele>
        <time>2015-11-01T00:46:46Z</time>
      </trkpt>
      <trkpt lat="44.04936" lon="5.41071">
        <ele>1024</ele>
        <time>2015-11-01T00:48:46Z</time>
      </trkpt>
      <trkpt lat="44.04863" lon="5.41036">
        <ele>1021</ele>
        <time>2015-11-01T00:50:46Z</time>
      </trkpt>
      <trkpt lat="44.04807" lon="5.40973">
        <ele>1019</ele>
        <time>2015-11-01T00:52:46Z</time>
      </trkpt>
      <trkpt lat="44.04765" lon="5.40881">
        <ele>1021</ele>
        <time>2015-11-01T00:54:46Z</time>
      </trkpt>
      <trkpt lat="44.04695" lon="5.40786">
        <ele>1022</ele>
        <time>2015-11-01T00:56:46Z</time>
      </trkpt>
      <trkpt lat="44.0459" lon="5.40581">
        <ele>1017</ele>
        <time>2015-11-01T00:58:46Z</time>
      </trkpt>
      <trkpt lat="44.04559" lon="5.40528">
        <ele>1018</ele>
        <time>2015-11-01T01:00:46Z</time>
      </trkpt>
      <trkpt lat="44.04596" lon="5.40526">
        <ele>1018</ele>
        <time>2015-11-01T01:02:46Z</time>
      </trkpt>
      <trkpt lat="44.04707" lon="5.40513">
        <ele>1015</ele>
        <time>2015-11-01T01:04:46Z</time>
      </trkpt>
      <trkpt lat="44.04777" lon="5.40468">
        <ele>1008</ele>
        <time>2015-11-01T01:06:46Z</time>
      </trkpt>
      <trkpt lat="44.04894" lon="5.40408">
        <ele>985</ele>
        <time>2015-11-01T01:08:46Z</time>
      </trkpt>
      <trkpt lat="44.04956" lon="5.40389">
        <ele>972</ele>
        <time>2015-11-01T01:10:46Z</time>
      </trkpt>
      <trkpt lat="44.05047" lon="5.40292">
        <ele>945</ele>
        <time>2015-11-01T01:12:46Z</time>
      </trkpt>
      <trkpt lat="44.05065" lon="5.40305">
        <ele>939</ele>
        <time>2015-11-01T01:14:46Z</time>
      </trkpt>
      <trkpt lat="44.05105" lon="5.40249">
        <ele>925</ele>
        <time>2015-11-01T01:16:46Z</time>
      </trkpt>
      <trkpt lat="44.05096" lon="5.40134">
        <ele>908</ele>
        <time>2015-11-01T01:18:46Z</time>
      </trkpt>
      <trkpt lat="44.05042" lon="5.40041">
        <ele>895</ele>
        <time>2015-11-01T01:20:46Z</time>
      </trkpt>
      <trkpt lat="44.04948" lon="5.39925">
        <ele>865</ele>
        <time>2015-11-01T01:22:46Z</time>
      </trkpt>
      <trkpt lat="44.04826" lon="5.3982">
        <ele>835</ele>
        <time>2015-11-01T01:24:46Z</time>
      </trkpt>
      <trkpt lat="44.04697" lon="5.39758">
        <ele>817</ele>
        <time>2015-11-01T01:26:46Z</time>
      </trkpt>
      <trkpt lat="44.0468" lon="5.39687">
        <ele>808</ele>
        <time>2015-11-01T01:28:46Z</time>
      </trkpt>
      <trkpt lat="44.04729" lon="5.39653">
        <ele>806</ele>
        <time>2015-11-01T01:30:46Z</time>
      </trkpt>
      <trkpt lat="44.0474" lon="5.39567">
        <ele>803</ele>
        <time>2015-11-01T01:32:46Z</time>
      </trkpt>
      <trkpt lat="44.04683" lon="5.39569">
        <ele>804</ele>
        <time>2015-11-01T01:34:46Z</time>
      </trkpt>
      <trkpt lat="44.0463" lon="5.39563">
        <ele>808</ele>
        <time>2015-11-01T01:36:46Z</time>
      </trkpt>
      <trkpt lat="44.04586" lon="5.39552">
        <ele>812</ele>
        <time>2015-11-01T01:38:46Z</time>
      </trkpt>
      <trkpt lat="44.04542" lon="5.39578">
        <ele>816</ele>
        <time>2015-11-01T01:40:46Z</time>
      </trkpt>
      <trkpt lat="44.04507" lon="5.39604">
        <ele>819</ele>
        <time>2015-11-01T01:42:46Z</time>
      </trkpt>
      <trkpt lat="44.04461" lon="5.39608">
        <ele>822</ele>
        <time>2015-11-01T01:44:46Z</time>
      </trkpt>
      <trkpt lat="44.0441" lon="5.39621">
        <ele>825</ele>
        <time>2015-11-01T01:46:46Z</time>
      </trkpt>
      <trkpt lat="44.04376" lon="5.39612">
        <ele>826</ele>
        <time>2015-11-01T01:48:46Z</time>
      </trkpt>
      <trkpt lat="44.04316" lon="5.39593">
        <ele>828</ele>
        <time>2015-11-01T01:50:46Z</time>
      </trkpt>
      <trkpt lat="44.04276" lon="5.39582">
        <ele>828</ele>
        <time>2015-11-01T01:52:46Z</time>
      </trkpt>
      <trkpt lat="44.04252" lon="5.39567">
        <ele>829</ele>
        <time>2015-11-01T01:54:46Z</time>
      </trkpt>
      <trkpt lat="44.04118" lon="5.39504">
        <ele>828</ele>
        <time>2015-11-01T01:56:46Z</time>
      </trkpt>
      <trkpt lat="44.04128" lon="5.39438">
        <ele>830</ele>
        <time>2015-11-01T01:58:46Z</time>
      </trkpt>
      <trkpt lat="44.04125" lon="5.39308">
        <ele>828</ele>
        <time>2015-11-01T02:00:46Z</time>
      </trkpt>
      <trkpt lat="44.04135" lon="5.39176">
        <ele>826</ele>
        <time>2015-11-01T02:02:46Z</time>
      </trkpt>
      <trkpt lat="44.04156" lon="5.39041">
        <ele>823</ele>
        <time>2015-11-01T02:04:46Z</time>
      </trkpt>
      <trkpt lat="44.04173" lon="5.38904">
        <ele>825</ele>
        <time>2015-11-01T02:06:46Z</time>
      </trkpt>
      <trkpt lat="44.04178" lon="5.38829">
        <ele>829</ele>
        <time>2015-11-01T02:08:46Z</time>
      </trkpt>
      <trkpt lat="44.04231" lon="5.38756">
        <ele>829</ele>
        <time>2015-11-01T02:10:46Z</time>
      </trkpt>
      <trkpt lat="44.04244" lon="5.38683">
        <ele>828</ele>
        <time>2015-11-01T02:12:46Z</time>
      </trkpt>
      <trkpt lat="44.0429" lon="5.38638">
        <ele>827</ele>
        <time>2015-11-01T02:14:46Z</time>
      </trkpt>
      <trkpt lat="44.04337" lon="5.38501">
        <ele>826</ele>
        <time>2015-11-01T02:16:46Z</time>
      </trkpt>
      <trkpt lat="44.04379" lon="5.38436">
        <ele>828</ele>
        <time>2015-11-01T02:18:46Z</time>
      </trkpt>
      <trkpt lat="44.0442" lon="5.38395">
        <ele>830</ele>
        <time>2015-11-01T02:20:46Z</time>
      </trkpt>
      <trkpt lat="44.04466" lon="5.38355">
        <ele>829</ele>
        <time>2015-11-01T02:22:46Z</time>
      </trkpt>
      <trkpt lat="44.04507" lon="5.38317">
        <ele>828</ele>
        <time>2015-11-01T02:24:46Z</time>
      </trkpt>
      <trkpt lat="44.04554" lon="5.38272">
        <ele>828</ele>
        <time>2015-11-01T02:26:46Z</time>
      </trkpt>
      <trkpt lat="44.04651" lon="5.38203">
        <ele>830</ele>
        <time>2015-11-01T02:28:46Z</time>
      </trkpt>
      <trkpt lat="44.0473" lon="5.38167">
        <ele>831</ele>
        <time>2015-11-01T02:30:46Z</time>
      </trkpt>
      <trkpt lat="44.04799" lon="5.38124">
        <ele>830</ele>
        <time>2015-11-01T02:32:46Z</time>
      </trkpt>
      <trkpt lat="44.04822" lon="5.38064">
        <ele>831</ele>
        <time>2015-11-01T02:34:46Z</time>
      </trkpt>
      <trkpt lat="44.04853" lon="5.37991">
        <ele>830</ele>
        <time>2015-11-01T02:36:46Z</time>
      </trkpt>
      <trkpt lat="44.04887" lon="5.37965">
        <ele>829</ele>
        <time>2015-11-01T02:38:46Z</time>
      </trkpt>
      <trkpt lat="44.04895" lon="5.37931">
        <ele>829</ele>
        <time>2015-11-01T02:40:46Z</time>
      </trkpt>
      <trkpt lat="44.04944" lon="5.37911">
        <ele>827</ele>
        <time>2015-11-01T02:42:46Z</time>
      </trkpt>
      <trkpt lat="44.04984" lon="5.37873">
        <ele>824</ele>
        <time>2015-11-01T02:44:46Z</time>
      </trkpt>
      <trkpt lat="44.05009" lon="5.37851">
        <ele>822</ele>
        <time>2015-11-01T02:46:46Z</time>
      </trkpt>
      <trkpt lat="44.0501" lon="5.37789">
        <ele>820</ele>
        <time>2015-11-01T02:48:46Z</time>
      </trkpt>
      <trkpt lat="44.04987" lon="5.37738">
        <ele>818</ele>
        <time>2015-11-01T02:50:46Z</time>
      </trkpt>
      <trkpt lat="44.04956" lon="5.37688">
        <ele>813</ele>
        <time>2015-11-01T02:52:46Z</time>
      </trkpt>
      <trkpt lat="44.0493" lon="5.37665">
        <ele>810</ele>
        <time>2015-11-01T02:54:46Z</time>
      </trkpt>
      <trkpt lat="44.04896" lon="5.37643">
        <ele>808</ele>
        <time>2015-11-01T02:56:46Z</time>
      </trkpt>
      <trkpt lat="44.04976" lon="5.37615">
        <ele>809</ele>
        <time>2015-11-01T02:58:46Z</time>
      </trkpt>
      <trkpt lat="44.05004" lon="5.3757">
        <ele>809</ele>
        <time>2015-11-01T03:00:46Z</time>
      </trkpt>
      <trkpt lat="44.05061" lon="5.37542">
        <ele>807</ele>
        <time>2015-11-01T03:02:46Z</time>
      </trkpt>
      <trkpt lat="44.05138" lon="5.37559">
        <ele>803</ele>
        <time>2015-11-01T03:04:46Z</time>
      </trkpt>
      <trkpt lat="44.05191" lon="5.37519">
        <ele>796</ele>
        <time>2015-11-01T03:06:46Z</time>
      </trkpt>
      <trkpt lat="44.05265" lon="5.3751">
        <ele>789</ele>
        <time>2015-11-01T03:08:46Z</time>
      </trkpt>
      <trkpt lat="44.05331" lon="5.37464">
        <ele>782</ele>
        <time>2015-11-01T03:10:46Z</time>
      </trkpt>
      <trkpt lat="44.05288" lon="5.37463">
        <ele>785</ele>
        <time>2015-11-01T03:12:46Z</time>
      </trkpt>
      <trkpt lat="44.05281" lon="5.37422">
        <ele>783</ele>
        <time>2015-11-01T03:14:46Z</time>
      </trkpt>
      <trkpt lat="44.05288" lon="5.37313">
        <ele>779</ele>
        <time>2015-11-01T03:16:46Z</time>
      </trkpt>
      <trkpt lat="44.05241" lon="5.37268">
        <ele>782</ele>
        <time>2015-11-01T03:18:46Z</time>
      </trkpt>
      <trkpt lat="44.05204" lon="5.37223">
        <ele>781</ele>
        <time>2015-11-01T03:20:46Z</time>
      </trkpt>
      <trkpt lat="44.0509" lon="5.37214">
        <ele>785</ele>
        <time>2015-11-01T03:22:46Z</time>
      </trkpt>
      <trkpt lat="44.0507" lon="5.37152">
        <ele>782</ele>
        <time>2015-11-01T03:24:46Z</time>
      </trkpt>
      <trkpt lat="44.05033" lon="5.37089">
        <ele>782</ele>
        <time>2015-11-01T03:26:46Z</time>
      </trkpt>
      <trkpt lat="44.04976" lon="5.3705">
        <ele>782</ele>
        <time>2015-11-01T03:28:46Z</time>
      </trkpt>
      <trkpt lat="44.04968" lon="5.37055">
        <ele>780</ele>
        <time>2015-11-01T03:30:46Z</time>
      </trkpt>
      <trkpt lat="44.04966" lon="5.37076">
        <ele>779</ele>
        <time>2015-11-01T03:32:46Z</time>
      </trkpt>
      <trkpt lat="44.0494" lon="5.37087">
        <ele>774</ele>
        <time>2015-11-01T03:34:46Z</time>
      </trkpt>
      <trkpt lat="44.04923" lon="5.37104">
        <ele>772</ele>
        <time>2015-11-01T03:36:46Z</time>
      </trkpt>
      <trkpt lat="44.04911" lon="5.37116">
        <ele>771</ele>
        <time>2015-11-01T03:38:46Z</time>
      </trkpt>
      <trkpt lat="44.04892" lon="5.37127">
        <ele>767</ele>
        <time>2015-11-01T03:40:46Z</time>
      </trkpt>
      <trkpt lat="44.04881" lon="5.37142">
        <ele>765</ele>
        <time>2015-11-01T03:42:46Z</time>
      </trkpt>
      <trkpt lat="44.04863" lon="5.37184">
        <ele>764</ele>
        <time>2015-11-01T03:44:46Z</time>
      </trkpt>
      <trkpt lat="44.04849" lon="5.37211">
        <ele>765</ele>
        <time>2015-11-01T03:46:46Z</time>
      </trkpt>
      <trkpt lat="44.04824" lon="5.37253">
        <ele>766</ele>
        <time>2015-11-01T03:48:46Z</time>
      </trkpt>
      <trkpt lat="44.04789" lon="5.37269">
        <ele>763</ele>
        <time>2015-11-01T03:50:46Z</time>
      </trkpt>
      <trkpt lat="44.04768" lon="5.37296">
        <ele>764</ele>
        <time>2015-11-01T03:52:46Z</time>
      </trkpt>
      <trkpt lat="44.04755" lon="5.37329">
        <ele>766</ele>
        <time>2015-11-01T03:54:46Z</time>
      </trkpt>
      <trkpt lat="44.04741" lon="5.37303">
        <ele>762</ele>
        <time>2015-11-01T03:56:46Z</time>
      </trkpt>
      <trkpt lat="44.04737" lon="5.37276">
        <ele>759</ele>
        <time>2015-11-01T03:58:46Z</time>
      </trkpt>
      <trkpt lat="44.04742" lon="5.37191">
        <ele>754</ele>
        <time>2015-11-01T04:00:46Z</time>
      </trkpt>
      <trkpt lat="44.04683" lon="5.3719">
        <ele>760</ele>
        <time>2015-11-01T04:02:46Z</time>
      </trkpt>
      <trkpt lat="44.04645" lon="5.37209">
        <ele>761</ele>
        <time>2015-11-01T04:04:46Z</time>
      </trkpt>
      <trkpt lat="44.04617" lon="5.37209">
        <ele>762</ele>
        <time>2015-11-01T04:06:46Z</time>
      </trkpt>
      <trkpt lat="44.04593" lon="5.37231">
        <ele>760</ele>
        <time>2015-11-01T04:08:46Z</time>
      </trkpt>
      <trkpt lat="44.04555" lon="5.37333">
        <ele>764</ele>
        <time>2015-11-01T04:10:46Z</time>
      </trkpt>
      <trkpt lat="44.04543" lon="5.3733">
        <ele>765</ele>
        <time>2015-11-01T04:12:46Z</time>
      </trkpt>
      <trkpt lat="44.04544" lon="5.37274">
        <ele>764</ele>
        <time>2015-11-01T04:14:46Z</time>
      </trkpt>
      <trkpt lat="44.04527" lon="5.37264">
        <ele>767</ele>
        <time>2015-11-01T04:16:46Z</time>
      </trkpt>
      <trkpt lat="44.04517" lon="5.37309">
        <ele>768</ele>
        <time>2015-11-01T04:18:46Z</time>
      </trkpt>
      <trkpt lat="44.04492" lon="5.37311">
        <ele>772</ele>
        <time>2015-11-01T04:20:46Z</time>
      </trkpt>
      <trkpt lat="44.04455" lon="5.37329">
        <ele>779</ele>
        <time>2015-11-01T04:22:46Z</time>
      </trkpt>
      <trkpt lat="44.04417" lon="5.37324">
        <ele>787</ele>
        <time>2015-11-01T04:24:46Z</time>
      </trkpt>
      <trkpt lat="44.04347" lon="5.37331">
        <ele>796</ele>
        <time>2015-11-01T04:26:46Z</time>
      </trkpt>
      <trkpt lat="44.0429" lon="5.37287">
        <ele>801</ele>
        <time>2015-11-01T04:28:46Z</time>
      </trkpt>
      <trkpt lat="44.04252" lon="5.37244">
        <ele>803</ele>
        <time>2015-11-01T04:30:46Z</time>
      </trkpt>
      <trkpt lat="44.04172" lon="5.37139">
        <ele>812</ele>
        <time>2015-11-01T04:32:46Z</time>
      </trkpt>
      <trkpt lat="44.04149" lon="5.37098">
        <ele>813</ele>
        <time>2015-11-01T04:34:46Z</time>
      </trkpt>
      <trkpt lat="44.04182" lon="5.37069">
        <ele>812</ele>
        <time>2015-11-01T04:36:46Z</time>
      </trkpt>
      <trkpt lat="44.04191" lon="5.3702">
        <ele>814</ele>
        <time>2015-11-01T04:38:46Z</time>
      </trkpt>
      <trkpt lat="44.04243" lon="5.37001">
        <ele>813</ele>
        <time>2015-11-01T04:40:46Z</time>
      </trkpt>
      <trkpt lat="44.04315" lon="5.36916">
        <ele>808</ele>
        <time>2015-11-01T04:42:46Z</time>
      </trkpt>
      <trkpt lat="44.04301" lon="5.36881">
        <ele>808</ele>
        <time>2015-11-01T04:44:46Z</time>
      </trkpt>
      <trkpt lat="44.04292" lon="5.36812">
        <ele>806</ele>
        <time>2015-11-01T04:46:46Z</time>
      </trkpt>
      <trkpt lat="44.04302" lon="5.3678">
        <ele>804</ele>
        <time>2015-11-01T04:48:46Z</time>
      </trkpt>
      <trkpt lat="44.04296" lon="5.36731">
        <ele>803</ele>
        <time>2015-11-01T04:50:46Z</time>
      </trkpt>
      <trkpt lat="44.04293" lon="5.36673">
        <ele>805</ele>
        <time>2015-11-01T04:52:46Z</time>
      </trkpt>
      <trkpt lat="44.04256" lon="5.36644">
        <ele>811</ele>
        <time>2015-11-01T04:54:46Z</time>
      </trkpt>
      <trkpt lat="44.04274" lon="5.36618">
        <ele>809</ele>
        <time>2015-11-01T04:56:46Z</time>
      </trkpt>
      <trkpt lat="44.04269" lon="5.36569">
        <ele>810</ele>
        <time>2015-11-01T04:58:46Z</time>
      </trkpt>
      <trkpt lat="44.04258" lon="5.36524">
        <ele>812</ele>
        <time>2015-11-01T05:00:46Z</time>
      </trkpt>
      <trkpt lat="44.04277" lon="5.36462">
        <ele>811</ele>
        <time>2015-11-01T05:02:46Z</time>
      </trkpt>
      <trkpt lat="44.0428" lon="5.364">
        <ele>813</ele>
        <time>2015-11-01T05:04:46Z</time>
      </trkpt>
      <trkpt lat="44.04304" lon="5.36352">
        <ele>811</ele>
        <time>2015-11-01T05:06:46Z</time>
      </trkpt>
      <trkpt lat="44.04289" lon="5.36329">
        <ele>812</ele>
        <time>2015-11-01T05:08:46Z</time>
      </trkpt>
      <trkpt lat="44.04295" lon="5.36306">
        <ele>810</ele>
        <time>2015-11-01T05:10:46Z</time>
      </trkpt>
      <trkpt lat="44.04287" lon="5.36281">
        <ele>809</ele>
        <time>2015-11-01T05:12:46Z</time>
      </trkpt>
      <trkpt lat="44.04281" lon="5.36268">
        <ele>808</ele>
        <time>2015-11-01T05:14:46Z</time>
      </trkpt>
      <trkpt lat="44.04271" lon="5.36259">
        <ele>808</ele>
        <time>2015-11-01T05:16:46Z</time>
      </trkpt>
      <trkpt lat="44.04261" lon="5.36248">
        <ele>808</ele>
        <time>2015-11-01T05:18:46Z</time>
      </trkpt>
      <trkpt lat="44.04199" lon="5.36201">
        <ele>801</ele>
        <time>2015-11-01T05:20:46Z</time>
      </trkpt>
      <trkpt lat="44.04241" lon="5.36148">
        <ele>791</ele>
        <time>2015-11-01T05:22:46Z</time>
      </trkpt>
      <trkpt lat="44.04302" lon="5.36127">
        <ele>786</ele>
        <time>2015-11-01T05:24:46Z</time>
      </trkpt>
      <trkpt lat="44.04361" lon="5.36104">
        <ele>781</ele>
        <time>2015-11-01T05:26:46Z</time>
      </trkpt>
      <trkpt lat="44.04368" lon="5.36076">
        <ele>776</ele>
        <time>2015-11-01T05:28:46Z</time>
      </trkpt>
      <trkpt lat="44.04344" lon="5.3603">
        <ele>771</ele>
        <time>2015-11-01T05:30:46Z</time>
      </trkpt>
      <trkpt lat="44.04337" lon="5.35969">
        <ele>764</ele>
        <time>2015-11-01T05:32:46Z</time>
      </trkpt>
      <trkpt lat="44.04312" lon="5.35935">
        <ele>759</ele>
        <time>2015-11-01T05:34:46Z</time>
      </trkpt>
      <trkpt lat="44.04261" lon="5.35965">
        <ele>761</ele>
        <time>2015-11-01T05:36:46Z</time>
      </trkpt>
      <trkpt lat="44.04228" lon="5.35978">
        <ele>764</ele>
        <time>2015-11-01T05:38:46Z</time>
      </trkpt>
      <trkpt lat="44.04145" lon="5.3595">
        <ele>764</ele>
        <time>2015-11-01T05:40:46Z</time>
      </trkpt>
      <trkpt lat="44.04068" lon="5.35937">
        <ele>765</ele>
        <time>2015-11-01T05:42:46Z</time>
      </trkpt>
      <trkpt lat="44.03756" lon="5.35932">
        <ele>765</ele>
        <time>2015-11-01T05:44:46Z</time>
      </trkpt>
      <trkpt lat="44.03677" lon="5.35922">
        <ele>766</ele>
        <time>2015-11-01T05:46:46Z</time>
      </trkpt>
      <trkpt lat="44.03601" lon="5.359">
        <ele>769</ele>
        <time>2015-11-01T05:48:46Z</time>
      </trkpt>
      <trkpt lat="44.03524" lon="5.35826">
        <ele>771</ele>
        <time>2015-11-01T05:50:46Z</time>
      </trkpt>
      <trkpt lat="44.03355" lon="5.35603">
        <ele>785</ele>
        <time>2015-11-01T05:52:46Z</time>
      </trkpt>
      <trkpt lat="44.03275" lon="5.35533">
        <ele>792</ele>
        <time>2015-11-01T05:54:46Z</time>
      </trkpt>
      <trkpt lat="44.03229" lon="5.35481">
        <ele>799</ele>
        <time>2015-11-01T05:56:46Z</time>
      </trkpt>
      <trkpt lat="44.03246" lon="5.35399">
        <ele>798</ele>
        <time>2015-11-01T05:58:46Z</time>
      </trkpt>
      <trkpt lat="44.03208" lon="5.35293">
        <ele>804</ele>
        <time>2015-11-01T06:00:46Z</time>
      </trkpt>
      <trkpt lat="44.03099" lon="5.35322">
        <ele>811</ele>
        <time>2015-11-01T06:02:46Z</time>
      </trkpt>
      <trkpt lat="44.0308" lon="5.35328">
        <ele>812</ele>
        <time>2015-11-01T06:04:46Z</time>
      </trkpt>
      <trkpt lat="44.03062" lon="5.3529">
        <ele>813</ele>
        <time>2015-11-01T06:06:46Z</time>
      </trkpt>
      <trkpt lat="44.02982" lon="5.35217">
        <ele>816</ele>
        <time>2015-11-01T06:08:46Z</time>
      </trkpt>
      <trkpt lat="44.02846" lon="5.35154">
        <ele>824</ele>
        <time>2015-11-01T06:10:46Z</time>
      </trkpt>
      <trkpt lat="44.02734" lon="5.35061">
        <ele>825</ele>
        <time>2015-11-01T06:12:46Z</time>
      </trkpt>
      <trkpt lat="44.02646" lon="5.34949">
        <ele>825</ele>
        <time>2015-11-01T06:14:46Z</time>
      </trkpt>
      <trkpt lat="44.02548" lon="5.34921">
        <ele>826</ele>
        <time>2015-11-01T06:16:46Z</time>
      </trkpt>
      <trkpt lat="44.02449" lon="5.34918">
        <ele>823</ele>
        <time>2015-11-01T06:18:46Z</time>
      </trkpt>
      <trkpt lat="44.02252" lon="5.34846">
        <ele>813</ele>
        <time>2015-11-01T06:20:46Z</time>
      </trkpt>
      <trkpt lat="44.02054" lon="5.34802">
        <ele>802</ele>
        <time>2015-11-01T06:22:46Z</time>
      </trkpt>
      <trkpt lat="44.01964" lon="5.34833">
        <ele>797</ele>
        <time>2015-11-01T06:24:46Z</time>
      </trkpt>
      <trkpt lat="44.01871" lon="5.34838">
        <ele>787</ele>
        <time>2015-11-01T06:26:46Z</time>
      </trkpt>
      <trkpt lat="44.01678" lon="5.34802">
        <ele>768</ele>
        <time>2015-11-01T06:28:46Z</time>
      </trkpt>
      <trkpt lat="44.0162" lon="5.3481">
        <ele>764</ele>
        <time>2015-11-01T06:30:46Z</time>
      </trkpt>
      <trkpt lat="44.01569" lon="5.34819">
        <ele>760</ele>
        <time>2015-11-01T06:32:46Z</time>
      </trkpt>
      <trkpt lat="44.01508" lon="5.348">
        <ele>757</ele>
        <time>2015-11-01T06:34:46Z</time>
      </trkpt>
      <trkpt lat="44.01462" lon="5.34729">
        <ele>755</ele>
        <time>2015-11-01T06:36:46Z</time>
      </trkpt>
      <trkpt lat="44.0144" lon="5.34669">
        <ele>755</ele>
        <time>2015-11-01T06:38:46Z</time>
      </trkpt>
      <trkpt lat="44.01432" lon="5.3461">
        <ele>757</ele>
        <time>2015-11-01T06:40:46Z</time>
      </trkpt>
      <trkpt lat="44.01404" lon="5.34578">
        <ele>758</ele>
        <time>2015-11-01T06:42:46Z</time>
      </trkpt>
      <trkpt lat="44.01362" lon="5.34571">
        <ele>759</ele>
        <time>2015-11-01T06:44:46Z</time>
      </trkpt>
      <trkpt lat="44.01311" lon="5.34502">
        <ele>762</ele>
        <time>2015-11-01T06:46:46Z</time>
      </trkpt>
      <trkpt lat="44.01229" lon="5.34443">
        <ele>762</ele>
        <time>2015-11-01T06:48:46Z</time>
      </trkpt>
      <trkpt lat="44.01195" lon="5.34353">
        <ele>765</ele>
        <time>2015-11-01T06:50:46Z</time>
      </trkpt>
      <trkpt lat="44.01169" lon="5.34303">
        <ele>766</ele>
        <time>2015-11-01T06:52:46Z</time>
      </trkpt>
      <trkpt lat="44.01218" lon="5.34154">
        <ele>772</ele>
        <time>2015-11-01T06:54:46Z</time>
      </trkpt>
      <trkpt lat="44.01246" lon="5.34114">
        <ele>772</ele>
        <time>2015-11-01T06:56:46Z</time>
      </trkpt>
      <trkpt lat="44.01333" lon="5.34066">
        <ele>780</ele>
        <time>2015-11-01T06:58:46Z</time>
      </trkpt>
      <trkpt lat="44.01369" lon="5.34063">
        <ele>782</ele>
        <time>2015-11-01T07:00:46Z</time>
      </trkpt>
      <trkpt lat="44.01397" lon="5.34046">
        <ele>783</ele>
        <time>2015-11-01T07:02:46Z</time>
      </trkpt>
      <trkpt lat="44.01434" lon="5.34027">
        <ele>786</ele>
        <time>2015-11-01T07:04:46Z</time>
      </trkpt>
      <trkpt lat="44.01479" lon="5.3399">
        <ele>788</ele>
        <time>2015-11-01T07:06:46Z</time>
      </trkpt>
      <trkpt lat="44.01511" lon="5.33959">
        <ele>790</ele>
        <time>2015-11-01T07:08:46Z</time>
      </trkpt>
      <trkpt lat="44.01535" lon="5.33922">
        <ele>792</ele>
        <time>2015-11-01T07:10:46Z</time>
      </trkpt>
      <trkpt lat="44.01562" lon="5.33888">
        <ele>795</ele>
        <time>2015-11-01T07:12:46Z</time>
      </trkpt>
      <trkpt lat="44.0156" lon="5.33853">
        <ele>796</ele>
        <time>2015-11-01T07:14:46Z</time>
      </trkpt>
      <trkpt lat="44.01576" lon="5.33825">
        <ele>798</ele>
        <time>2015-11-01T07:16:46Z</time>
      </trkpt>
      <trkpt lat="44.01614" lon="5.33788">
        <ele>805</ele>
        <time>2015-11-01T07:18:46Z</time>
      </trkpt>
      <trkpt lat="44.01695" lon="5.3375">
        <ele>813</ele>
        <time>2015-11-01T07:20:46Z</time>
      </trkpt>
      <trkpt lat="44.01717" lon="5.33715">
        <ele>819</ele>
        <time>2015-11-01T07:22:46Z</time>
      </trkpt>
      <trkpt lat="44.01707" lon="5.33692">
        <ele>822</ele>
        <time>2015-11-01T07:24:46Z</time>
      </trkpt>
      <trkpt lat="44.01693" lon="5.33637">
        <ele>828</ele>
        <time>2015-11-01T07:26:46Z</time>
      </trkpt>
      <trkpt lat="44.01708" lon="5.33566">
        <ele>834</ele>
        <time>2015-11-01T07:28:46Z</time>
      </trkpt>
      <trkpt lat="44.01735" lon="5.33542">
        <ele>834</ele>
        <time>2015-11-01T07:30:46Z</time>
      </trkpt>
      <trkpt lat="44.01675" lon="5.33474">
        <ele>829</ele>
        <time>2015-11-01T07:32:46Z</time>
      </trkpt>
      <trkpt lat="44.0174" lon="5.33445">
        <ele>829</ele>
        <time>2015-11-01T07:34:46Z</time>
      </trkpt>
      <trkpt lat="44.01762" lon="5.33421">
        <ele>830</ele>
        <time>2015-11-01T07:36:46Z</time>
      </trkpt>
      <trkpt lat="44.01765" lon="5.33344">
        <ele>823</ele>
        <time>2015-11-01T07:38:46Z</time>
      </trkpt>
      <trkpt lat="44.01778" lon="5.33278">
        <ele>820</ele>
        <time>2015-11-01T07:40:46Z</time>
      </trkpt>
      <trkpt lat="44.01799" lon="5.33217">
        <ele>818</ele>
        <time>2015-11-01T07:42:46Z</time>
      </trkpt>
      <trkpt lat="44.01807" lon="5.33154">
        <ele>814</ele>
        <time>2015-11-01T07:44:46Z</time>
      </trkpt>
      <trkpt lat="44.01786" lon="5.33107">
        <ele>813</ele>
        <time>2015-11-01T07:46:46Z</time>
      </trkpt>
      <trkpt lat="44.01761" lon="5.33083">
        <ele>813</ele>
        <time>2015-11-01T07:48:46Z</time>
      </trkpt>
      <trkpt lat="44.01775" lon="5.3305">
        <ele>820</ele>
        <time>2015-11-01T07:50:46Z</time>
      </trkpt>
      <trkpt lat="44.01775" lon="5.33017">
        <ele>826</ele>
        <time>2015-11-01T07:52:46Z</time>
      </trkpt>
      <trkpt lat="44.01728" lon="5.32958">
        <ele>832</ele>
        <time>2015-11-01T07:54:46Z</time>
      </trkpt>
      <trkpt lat="44.01695" lon="5.32893">
        <ele>837</ele>
        <time>2015-11-01T07:56:46Z</time>
      </trkpt>
      <trkpt lat="44.0166" lon="5.32846">
        <ele>839</ele>
        <time>2015-11-01T07:58:46Z</time>
      </trkpt>
      <trkpt lat="44.01641" lon="5.32735">
        <ele>840</ele>
        <time>2015-11-01T08:00:46Z</time>
      </trkpt>
      <trkpt lat="44.01652" lon="5.32694">
        <ele>838</ele>
        <time>2015-11-01T08:02:46Z</time>
      </trkpt>
      <trkpt lat="44.01571" lon="5.3249">
        <ele>815</ele>
        <time>2015-11-01T08:04:46Z</time>
      </trkpt>
      <trkpt lat="44.01664" lon="5.32461">
        <ele>815</ele>
        <time>2015-11-01T08:06:46Z</time>
      </trkpt>
      <trkpt lat="44.01753" lon="5.32446">
        <ele>814</ele>
        <time>2015-11-01T08:08:46Z</time>
      </trkpt>
      <trkpt lat="44.0178" lon="5.32421">
        <ele>811</ele>
        <time>2015-11-01T08:10:46Z</time>
      </trkpt>
      <trkpt lat="44.01809" lon="5.32417">
        <ele>810</ele>
        <time>2015-11-01T08:12:46Z</time>
      </trkpt>
      <trkpt lat="44.01822" lon="5.32401">
        <ele>809</ele>
        <time>2015-11-01T08:14:46Z</time>
      </trkpt>
      <trkpt lat="44.01826" lon="5.32367">
        <ele>808</ele>
        <time>2015-11-01T08:16:46Z</time>
      </trkpt>
      <trkpt lat="44.01842" lon="5.32326">
        <ele>809</ele>
        <time>2015-11-01T08:18:46Z</time>
      </trkpt>
      <trkpt lat="44.01872" lon="5.3229">
        <ele>812</ele>
        <time>2015-11-01T08:20:46Z</time>
      </trkpt>
      <trkpt lat="44.01923" lon="5.32216">
        <ele>814</ele>
        <time>2015-11-01T08:22:46Z</time>
      </trkpt>
      <trkpt lat="44.01968" lon="5.32188">
        <ele>816</ele>
        <time>2015-11-01T08:24:46Z</time>
      </trkpt>
      <trkpt lat="44.01984" lon="5.32124">
        <ele>812</ele>
        <time>2015-11-01T08:26:46Z</time>
      </trkpt>
      <trkpt lat="44.02057" lon="5.32058">
        <ele>811</ele>
        <time>2015-11-01T08:28:46Z</time>
      </trkpt>
      <trkpt lat="44.02274" lon="5.32062">
        <ele>818</ele>
        <time>2015-11-01T08:30:46Z</time>
      </trkpt>
      <trkpt lat="44.0233" lon="5.32064">
        <ele>820</ele>
        <time>2015-11-01T08:32:46Z</time>
      </trkpt>
      <trkpt lat="44.02363" lon="5.32033">
        <ele>819</ele>
        <time>2015-11-01T08:34:46Z</time>
      </trkpt>
      <trkpt lat="44.02388" lon="5.31941">
        <ele>818</ele>
        <time>2015-11-01T08:36:46Z</time>
      </trkpt>
      <trkpt lat="44.02425" lon="5.31841">
        <ele>820</ele>
        <time>2015-11-01T08:38:46Z</time>
      </trkpt>
      <trkpt lat="44.02588" lon="5.31929">
        <ele>831</ele>
        <time>2015-11-01T08:40:46Z</time>
      </trkpt>
      <trkpt lat="44.02557" lon="5.31991">
        <ele>828</ele>
        <time>2015-11-01T08:42:46Z</time>
      </trkpt>
      <trkpt lat="44.02523" lon="5.321">
        <ele>829</ele>
        <time>2015-11-01T08:44:46Z</time>
      </trkpt>
      <trkpt lat="44.0251" lon="5.32154">
        <ele>831</ele>
        <time>2015-11-01T08:46:46Z</time>
      </trkpt>
      <trkpt lat="44.02509" lon="5.32235">
        <ele>829</ele>
        <time>2015-11-01T08:48:46Z</time>
      </trkpt>
      <trkpt lat="44.02529" lon="5.32328">
        <ele>831</ele>
        <time>2015-11-01T08:50:46Z</time>
      </trkpt>
      <trkpt lat="44.02536" lon="5.32392">
        <ele>835</ele>
        <time>2015-11-01T08:52:46Z</time>
      </trkpt>
      <trkpt lat="44.02538" lon="5.32443">
        <ele>839</ele>
        <time>2015-11-01T08:54:46Z</time>
      </trkpt>
      <trkpt lat="44.02543" lon="5.32497">
        <ele>843</ele>
        <time>2015-11-01T08:56:46Z</time>
      </trkpt>
      <trkpt lat="44.02519" lon="5.32538">
        <ele>850</ele>
        <time>2015-11-01T08:58:46Z</time>
      </trkpt>
      <trkpt lat="44.02524" lon="5.32583">
        <ele>854</ele>
        <time>2015-11-01T09:00:46Z</time>
      </trkpt>
      <trkpt lat="44.02509" lon="5.32628">
        <ele>859</ele>
        <time>2015-11-01T09:02:46Z</time>
      </trkpt>
      <trkpt lat="44.025" lon="5.32686">
        <ele>864</ele>
        <time>2015-11-01T09:04:46Z</time>
      </trkpt>
      <trkpt lat="44.02537" lon="5.32716">
        <ele>861</ele>
        <time>2015-11-01T09:06:46Z</time>
      </trkpt>
      <trkpt lat="44.02562" lon="5.32755">
        <ele>861</ele>
        <time>2015-11-01T09:08:46Z</time>
      </trkpt>
      <trkpt lat="44.02522" lon="5.32848">
        <ele>870</ele>
        <time>2015-11-01T09:10:46Z</time>
      </trkpt>
      <trkpt lat="44.02496" lon="5.32986">
        <ele>875</ele>
        <time>2015-11-01T09:12:46Z</time>
      </trkpt>
      <trkpt lat="44.02485" lon="5.33065">
        <ele>879</ele>
        <time>2015-11-01T09:14:46Z</time>
      </trkpt>
      <trkpt lat="44.02509" lon="5.33115">
        <ele>880</ele>
        <time>2015-11-01T09:16:46Z</time>
      </trkpt>
      <trkpt lat="44.02553" lon="5.33103">
        <ele>879</ele>
        <time>2015-11-01T09:18:46Z</time>
      </trkpt>
      <trkpt lat="44.02586" lon="5.33115">
        <ele>880</ele>
        <time>2015-11-01T09:20:46Z</time>
      </trkpt>
      <trkpt lat="44.02672" lon="5.33174">
        <ele>883</ele>
        <time>2015-11-01T09:22:46Z</time>
      </trkpt>
      <trkpt lat="44.02683" lon="5.33241">
        <ele>884</ele>
        <time>2015-11-01T09:24:46Z</time>
      </trkpt>
      <trkpt lat="44.02721" lon="5.33305">
        <ele>883</ele>
        <time>2015-11-01T09:26:46Z</time>
      </trkpt>
      <trkpt lat="44.02773" lon="5.33353">
        <ele>880</ele>
        <time>2015-11-01T09:28:46Z</time>
      </trkpt>
      <trkpt lat="44.0288" lon="5.33289">
        <ele>864</ele>
        <time>2015-11-01T09:30:46Z</time>
      </trkpt>
      <trkpt lat="44.02917" lon="5.33259">
        <ele>860</ele>
        <time>2015-11-01T09:32:46Z</time>
      </trkpt>
      <trkpt lat="44.02953" lon="5.33244">
        <ele>855</ele>
        <time>2015-11-01T09:34:46Z</time>
      </trkpt>
      <trkpt lat="44.02973" lon="5.33228">
        <ele>851</ele>
        <time>2015-11-01T09:36:46Z</time>
      </trkpt>
      <trkpt lat="44.03006" lon="5.33197">
        <ele>846</ele>
        <time>2015-11-01T09:38:46Z</time>
      </trkpt>
      <trkpt lat="44.03029" lon="5.33186">
        <ele>842</ele>
        <time>2015-11-01T09:40:46Z</time>
      </trkpt>
      <trkpt lat="44.03092" lon="5.33185">
        <ele>834</ele>
        <time>2015-11-01T09:42:46Z</time>
      </trkpt>
      <trkpt lat="44.0314" lon="5.3317">
        <ele>826</ele>
        <time>2015-11-01T09:44:46Z</time>
      </trkpt>
      <trkpt lat="44.03198" lon="5.33183">
        <ele>815</ele>
        <time>2015-11-01T09:46:46Z</time>
      </trkpt>
      <trkpt lat="44.03224" lon="5.33218">
        <ele>810</ele>
        <time>2015-11-01T09:48:46Z</time>
      </trkpt>
      <trkpt lat="44.03177" lon="5.33268">
        <ele>815</ele>
        <time>2015-11-01T09:50:46Z</time>
      </trkpt>
      <trkpt lat="44.0313" lon="5.33316">
        <ele>822</ele>
        <time>2015-11-01T09:52:46Z</time>
      </trkpt>
      <trkpt lat="44.03197" lon="5.33397">
        <ele>814</ele>
        <time>2015-11-01T09:54:46Z</time>
      </trkpt>
      <trkpt lat="44.03245" lon="5.33509">
        <ele>815</ele>
        <time>2015-11-01T09:56:46Z</time>
      </trkpt>
      <trkpt lat="44.03296" lon="5.33573">
        <ele>815</ele>
        <time>2015-11-01T09:58:46Z</time>
      </trkpt>
      <trkpt lat="44.03323" lon="5.33593">
        <ele>810</ele>
        <time>2015-11-01T10:00:46Z</time>
      </trkpt>
      <trkpt lat="44.03343" lon="5.33624">
        <ele>811</ele>
        <time>2015-11-01T10:02:46Z</time>
      </trkpt>
      <trkpt lat="44.03368" lon="5.33714">
        <ele>814</ele>
        <time>2015-11-01T10:04:46Z</time>
      </trkpt>
      <trkpt lat="44.03378" lon="5.33782">
        <ele>810</ele>
        <time>2015-11-01T10:06:46Z</time>
      </trkpt>
      <trkpt lat="44.03361" lon="5.3382">
        <ele>813</ele>
        <time>2015-11-01T10:08:46Z</time>
      </trkpt>
      <trkpt lat="44.034" lon="5.33781">
        <ele>804</ele>
        <time>2015-11-01T10:10:46Z</time>
      </trkpt>
      <trkpt lat="44.03408" lon="5.33719">
        <ele>802</ele>
        <time>2015-11-01T10:12:46Z</time>
      </trkpt>
      <trkpt lat="44.03412" lon="5.33615">
        <ele>797</ele>
        <time>2015-11-01T10:14:46Z</time>
      </trkpt>
      <trkpt lat="44.03419" lon="5.33598">
        <ele>795</ele>
        <time>2015-11-01T10:16:46Z</time>
      </trkpt>
      <trkpt lat="44.03431" lon="5.33602">
        <ele>793</ele>
        <time>2015-11-01T10:18:46Z</time>
      </trkpt>
      <trkpt lat="44.03462" lon="5.33615">
        <ele>789</ele>
        <time>2015-11-01T10:20:46Z</time>
      </trkpt>
      <trkpt lat="44.03508" lon="5.33602">
        <ele>783</ele>
        <time>2015-11-01T10:22:46Z</time>
      </trkpt>
      <trkpt lat="44.03528" lon="5.33587">
        <ele>781</ele>
        <time>2015-11-01T10:24:46Z</time>
      </trkpt>
      <trkpt lat="44.03552" lon="5.33569">
        <ele>778</ele>
        <time>2015-11-01T10:26:46Z</time>
      </trkpt>
      <trkpt lat="44.03577" lon="5.33571">
        <ele>776</ele>
        <time>2015-11-01T10:28:46Z</time>
      </trkpt>
      <trkpt lat="44.03591" lon="5.33584">
        <ele>775</ele>
        <time>2015-11-01T10:30:46Z</time>
      </trkpt>
      <trkpt lat="44.03599" lon="5.33582">
        <ele>774</ele>
        <time>2015-11-01T10:32:46Z</time>
      </trkpt>
      <trkpt lat="44.03613" lon="5.33571">
        <ele>773</ele>
        <time>2015-11-01T10:34:46Z</time>
      </trkpt>
      <trkpt lat="44.03622" lon="5.33558">
        <ele>772</ele>
        <time>2015-11-01T10:36:46Z</time>
      </trkpt>
      <trkpt lat="44.03637" lon="5.33555">
        <ele>770</ele>
        <time>2015-11-01T10:38:46Z</time>
      </trkpt>
      <trkpt lat="44.03647" lon="5.33583">
        <ele>769</ele>
        <time>2015-11-01T10:40:46Z</time>
      </trkpt>
      <trkpt lat="44.03662" lon="5.3363">
        <ele>765</ele>
        <time>2015-11-01T10:42:46Z</time>
      </trkpt>
      <trkpt lat="44.03693" lon="5.33634">
        <ele>762</ele>
        <time>2015-11-01T10:44:46Z</time>
      </trkpt>
      <trkpt lat="44.03731" lon="5.33643">
        <ele>757</ele>
        <time>2015-11-01T10:46:46Z</time>
      </trkpt>
      <trkpt lat="44.03765" lon="5.33637">
        <ele>753</ele>
        <time>2015-11-01T10:48:46Z</time>
      </trkpt>
      <trkpt lat="44.03798" lon="5.33647">
        <ele>748</ele>
        <time>2015-11-01T10:50:46Z</time>
      </trkpt>
      <trkpt lat="44.03861" lon="5.33643">
        <ele>739</ele>
        <time>2015-11-01T10:52:46Z</time>
      </trkpt>
      <trkpt lat="44.03924" lon="5.33669">
        <ele>730</ele>
        <time>2015-11-01T10:54:46Z</time>
      </trkpt>
      <trkpt lat="44.03923" lon="5.33779">
        <ele>719</ele>
        <time>2015-11-01T10:56:46Z</time>
      </trkpt>
      <trkpt lat="44.03858" lon="5.33868">
        <ele>717</ele>
        <time>2015-11-01T10:58:46Z</time>
      </trkpt>
      <trkpt lat="44.03858" lon="5.33922">
        <ele>717</ele>
        <time>2015-11-01T11:00:46Z</time>
      </trkpt>
      <trkpt lat="44.0395" lon="5.33978">
        <ele>717</ele>
        <time>2015-11-01T11:02:46Z</time>
      </trkpt>
      <trkpt lat="44.0403" lon="5.3405">
        <ele>724</ele>
        <time>2015-11-01T11:04:46Z</time>
      </trkpt>
      <trkpt lat="44.04145" lon="5.3429">
        <ele>725</ele>
        <time>2015-11-01T11:06:46Z</time>
      </trkpt>
      <trkpt lat="44.04184" lon="5.34374">
        <ele>724</ele>
        <time>2015-11-01T11:08:46Z</time>
      </trkpt>
      <trkpt lat="44.04194" lon="5.34392">
        <ele>724</ele>
        <time>2015-11-01T11:10:46Z</time>
      </trkpt>
      <trkpt lat="44.04197" lon="5.34434">
        <ele>727</ele>
        <time>2015-11-01T11:12:46Z</time>
      </trkpt>
      <trkpt lat="44.04234" lon="5.34438">
        <ele>724</ele>
        <time>2015-11-01T11:14:46Z</time>
      </trkpt>
      <trkpt lat="44.04227" lon="5.34467">
        <ele>724</ele>
        <time>2015-11-01T11:16:46Z</time>
      </trkpt>
      <trkpt lat="44.04255" lon="5.34505">
        <ele>721</ele>
        <time>2015-11-01T11:18:46Z</time>
      </trkpt>
      <trkpt lat="44.04348" lon="5.34527">
        <ele>707</ele>
        <time>2015-11-01T11:20:46Z</time>
      </trkpt>
      <trkpt lat="44.04398" lon="5.34575">
        <ele>694</ele>
        <time>2015-11-01T11:22:46Z</time>
      </trkpt>
      <trkpt lat="44.04505" lon="5.34577">
        <ele>678</ele>
        <time>2015-11-01T11:24:46Z</time>
      </trkpt>
      <trkpt lat="44.04487" lon="5.34619">
        <ele>684</ele>
        <time>2015-11-01T11:26:46Z</time>
      </trkpt>
      <trkpt lat="44.04591" lon="5.34622">
        <ele>677</ele>
        <time>2015-11-01T11:28:46Z</time>
      </trkpt>
      <trkpt lat="44.04736" lon="5.34681">
        <ele>683</ele>
        <time>2015-11-01T11:30:46Z</time>
      </trkpt>
      <trkpt lat="44.04804" lon="5.34696">
        <ele>674</ele>
        <time>2015-11-01T11:32:46Z</time>
      </trkpt>
      <trkpt lat="44.04827" lon="5.34727">
        <ele>677</ele>
        <time>2015-11-01T11:34:46Z</time>
      </trkpt>
      <trkpt lat="44.04903" lon="5.34771">
        <ele>659</ele>
        <time>2015-11-01T11:36:46Z</time>
      </trkpt>
      <trkpt lat="44.04923" lon="5.34825">
        <ele>658</ele>
        <time>2015-11-01T11:38:46Z</time>
      </trkpt>
      <trkpt lat="44.04895" lon="5.34878">
        <ele>675</ele>
        <time>2015-11-01T11:40:46Z</time>
      </trkpt>
      <trkpt lat="44.04952" lon="5.34946">
        <ele>668</ele>
        <time>2015-11-01T11:42:46Z</time>
      </trkpt>
      <trkpt lat="44.05169" lon="5.34941">
        <ele>635</ele>
        <time>2015-11-01T11:44:46Z</time>
      </trkpt>
      <trkpt lat="44.05211" lon="5.35036">
        <ele>645</ele>
        <time>2015-11-01T11:46:46Z</time>
      </trkpt>
      <trkpt lat="44.05263" lon="5.35099">
        <ele>631</ele>
        <time>2015-11-01T11:48:46Z</time>
      </trkpt>
      <trkpt lat="44.05374" lon="5.35132">
        <ele>639</ele>
        <time>2015-11-01T11:50:46Z</time>
      </trkpt>
      <trkpt lat="44.05518" lon="5.35271">
        <ele>641</ele>
        <time>2015-11-01T11:52:46Z</time>
      </trkpt>
      <trkpt lat="44.05547" lon="5.35323">
        <ele>646</ele>
        <time>2015-11-01T11:54:46Z</time>
      </trkpt>
      <trkpt lat="44.05575" lon="5.35432">
        <ele>645</ele>
        <time>2015-11-01T11:56:46Z</time>
      </trkpt>
      <trkpt lat="44.05604" lon="5.35476">
        <ele>642</ele>
        <time>2015-11-01T11:58:46Z</time>
      </trkpt>
      <trkpt lat="44.05633" lon="5.35486">
        <ele>637</ele>
        <time>2015-11-01T12:00:46Z</time>
      </trkpt>
      <trkpt lat="44.05657" lon="5.35467">
        <ele>636</ele>
        <time>2015-11-01T12:02:46Z</time>
      </trkpt>
      <trkpt lat="44.05697" lon="5.35486">
        <ele>631</ele>
        <time>2015-11-01T12:04:46Z</time>
      </trkpt>
      <trkpt lat="44.05839" lon="5.35636">
        <ele>629</ele>
        <time>2015-11-01T12:06:46Z</time>
      </trkpt>
      <trkpt lat="44.06039" lon="5.35736">
        <ele>631</ele>
        <time>2015-11-01T12:08:46Z</time>
      </trkpt>
      <trkpt lat="44.06121" lon="5.35801">
        <ele>632</ele>
        <time>2015-11-01T12:10:46Z</time>
      </trkpt>
      <trkpt lat="44.06212" lon="5.35824">
        <ele>632</ele>
        <time>2015-11-01T12:12:46Z</time>
      </trkpt>
      <trkpt lat="44.06323" lon="5.35783">
        <ele>641</ele>
        <time>2015-11-01T12:14:46Z</time>
      </trkpt>
      <trkpt lat="44.06521" lon="5.35768">
        <ele>655</ele>
        <time>2015-11-01T12:16:46Z</time>
      </trkpt>
      <trkpt lat="44.06624" lon="5.35873">
        <ele>653</ele>
        <time>2015-11-01T12:18:46Z</time>
      </trkpt>
      <trkpt lat="44.06754" lon="5.36044">
        <ele>645</ele>
        <time>2015-11-01T12:20:46Z</time>
      </trkpt>
      <trkpt lat="44.06733" lon="5.3616">
        <ele>637</ele>
        <time>2015-11-01T12:22:46Z</time>
      </trkpt>
      <trkpt lat="44.0675" lon="5.36211">
        <ele>636</ele>
        <time>2015-11-01T12:24:46Z</time>
      </trkpt>
      <trkpt lat="44.06723" lon="5.36303">
        <ele>639</ele>
        <time>2015-11-01T12:26:46Z</time>
      </trkpt>
      <trkpt lat="44.06675" lon="5.36378">
        <ele>650</ele>
        <time>2015-11-01T12:28:46Z</time>
      </trkpt>
      <trkpt lat="44.0665" lon="5.36408">
        <ele>655</ele>
        <time>2015-11-01T12:30:46Z</time>
      </trkpt>
      <trkpt lat="44.06584" lon="5.3645">
        <ele>663</ele>
        <time>2015-11-01T12:32:46Z</time>
      </trkpt>
      <trkpt lat="44.0649" lon="5.36537">
        <ele>683</ele>
        <time>2015-11-01T12:34:46Z</time>
      </trkpt>
      <trkpt lat="44.06514" lon="5.36556">
        <ele>687</ele>
        <time>2015-11-01T12:36:46Z</time>
      </trkpt>
      <trkpt lat="44.06478" lon="5.36595">
        <ele>693</ele>
        <time>2015-11-01T12:38:46Z</time>
      </trkpt>
      <trkpt lat="44.06432" lon="5.36658">
        <ele>699</ele>
        <time>2015-11-01T12:40:46Z</time>
      </trkpt>
      <trkpt lat="44.0642" lon="5.36744">
        <ele>706</ele>
        <time>2015-11-01T12:42:46Z</time>
      </trkpt>
      <trkpt lat="44.06354" lon="5.36857">
        <ele>713</ele>
        <time>2015-11-01T12:44:46Z</time>
      </trkpt>
      <trkpt lat="44.06233" lon="5.37">
        <ele>722</ele>
        <time>2015-11-01T12:46:46Z</time>
      </trkpt>
      <trkpt lat="44.06191" lon="5.37024">
        <ele>724</ele>
        <time>2015-11-01T12:48:46Z</time>
      </trkpt>
      <trkpt lat="44.06129" lon="5.37086">
        <ele>729</ele>
        <time>2015-11-01T12:50:46Z</time>
      </trkpt>
      <trkpt lat="44.06089" lon="5.3714">
        <ele>734</ele>
        <time>2015-11-01T12:52:46Z</time>
      </trkpt>
      <trkpt lat="44.06044" lon="5.37167">
        <ele>738</ele>
        <time>2015-11-01T12:54:46Z</time>
      </trkpt>
      <trkpt lat="44.05961" lon="5.37232">
        <ele>748</ele>
        <time>2015-11-01T12:56:46Z</time>
      </trkpt>
      <trkpt lat="44.05867" lon="5.37271">
        <ele>755</ele>
        <time>2015-11-01T12:58:46Z</time>
      </trkpt>
      <trkpt lat="44.05808" lon="5.37275">
        <ele>757</ele>
        <time>2015-11-01T13:00:46Z</time>
      </trkpt>
      <trkpt lat="44.05769" lon="5.37309">
        <ele>759</ele>
        <time>2015-11-01T13:02:46Z</time>
      </trkpt>
      <trkpt lat="44.05738" lon="5.37326">
        <ele>760</ele>
        <time>2015-11-01T13:04:46Z</time>
      </trkpt>
      <trkpt lat="44.05679" lon="5.37305">
        <ele>761</ele>
        <time>2015-11-01T13:06:46Z</time>
      </trkpt>
      <trkpt lat="44.05655" lon="5.37303">
        <ele>762</ele>
        <time>2015-11-01T13:08:46Z</time>
      </trkpt>
      <trkpt lat="44.05614" lon="5.37332">
        <ele>766</ele>
        <time>2015-11-01T13:10:46Z</time>
      </trkpt>
      <trkpt lat="44.05594" lon="5.37347">
        <ele>768</ele>
        <time>2015-11-01T13:12:46Z</time>
      </trkpt>
      <trkpt lat="44.05553" lon="5.37318">
        <ele>769</ele>
        <time>2015-11-01T13:14:46Z</time>
      </trkpt>
      <trkpt lat="44.05514" lon="5.37355">
        <ele>774</ele>
        <time>2015-11-01T13:16:46Z</time>
      </trkpt>
      <trkpt lat="44.05464" lon="5.37407">
        <ele>776</ele>
        <time>2015-11-01T13:18:46Z</time>
      </trkpt>
      <trkpt lat="44.05426" lon="5.37545">
        <ele>786</ele>
        <time>2015-11-01T13:20:46Z</time>
      </trkpt>
      <trkpt lat="44.05408" lon="5.37668">
        <ele>791</ele>
        <time>2015-11-01T13:22:46Z</time>
      </trkpt>
      <trkpt lat="44.05316" lon="5.37765">
        <ele>797</ele>
        <time>2015-11-01T13:24:46Z</time>
      </trkpt>
      <trkpt lat="44.05374" lon="5.37879">
        <ele>793</ele>
        <time>2015-11-01T13:26:46Z</time>
      </trkpt>
      <trkpt lat="44.05389" lon="5.3792">
        <ele>792</ele>
        <time>2015-11-01T13:28:46Z</time>
      </trkpt>
      <trkpt lat="44.05413" lon="5.38065">
        <ele>784</ele>
        <time>2015-11-01T13:30:46Z</time>
      </trkpt>
      <trkpt lat="44.0541" lon="5.38168">
        <ele>774</ele>
        <time>2015-11-01T13:32:46Z</time>
      </trkpt>
      <trkpt lat="44.05433" lon="5.38246">
        <ele>761</ele>
        <time>2015-11-01T13:34:46Z</time>
      </trkpt>
      <trkpt lat="44.05403" lon="5.38336">
        <ele>756</ele>
        <time>2015-11-01T13:36:46Z</time>
      </trkpt>
      <trkpt lat="44.05465" lon="5.38335">
        <ele>755</ele>
        <time>2015-11-01T13:38:46Z</time>
      </trkpt>
      <trkpt lat="44.05513" lon="5.38284">
        <ele>752</ele>
        <time>2015-11-01T13:40:46Z</time>
      </trkpt>
      <trkpt lat="44.05563" lon="5.38263">
        <ele>750</ele>
        <time>2015-11-01T13:42:46Z</time>
      </trkpt>
      <trkpt lat="44.05669" lon="5.38247">
        <ele>744</ele>
        <time>2015-11-01T13:44:46Z</time>
      </trkpt>
      <trkpt lat="44.05881" lon="5.3832">
        <ele>732</ele>
        <time>2015-11-01T13:46:46Z</time>
      </trkpt>
      <trkpt lat="44.0593" lon="5.38339">
        <ele>729</ele>
        <time>2015-11-01T13:48:46Z</time>
      </trkpt>
      <trkpt lat="44.06035" lon="5.38474">
        <ele>718</ele>
        <time>2015-11-01T13:50:46Z</time>
      </trkpt>
      <trkpt lat="44.06105" lon="5.3858">
        <ele>708</ele>
        <time>2015-11-01T13:52:46Z</time>
      </trkpt>
      <trkpt lat="44.06107" lon="5.3864">
        <ele>705</ele>
        <time>2015-11-01T13:54:46Z</time>
      </trkpt>
      <trkpt lat="44.06144" lon="5.38705">
        <ele>700</ele>
        <time>2015-11-01T13:56:46Z</time>
      </trkpt>
      <trkpt lat="44.06165" lon="5.38811">
        <ele>694</ele>
        <time>2015-11-01T13:58:46Z</time>
      </trkpt>
      <trkpt lat="44.06165" lon="5.39289">
        <ele>686</ele>
        <time>2015-11-01T14:00:46Z</time>
      </trkpt>
      <trkpt lat="44.06198" lon="5.39339">
        <ele>685</ele>
        <time>2015-11-01T14:02:46Z</time>
      </trkpt>
      <trkpt lat="44.06176" lon="5.39371">
        <ele>687</ele>
        <time>2015-11-01T14:04:46Z</time>
      </trkpt>
      <trkpt lat="44.06136" lon="5.39386">
        <ele>688</ele>
        <time>2015-11-01T14:06:46Z</time>
      </trkpt>
      <trkpt lat="44.06107" lon="5.39453">
        <ele>692</ele>
        <time>2015-11-01T14:08:46Z</time>
      </trkpt>
      <trkpt lat="44.06084" lon="5.39495">
        <ele>696</ele>
        <time>2015-11-01T14:10:46Z</time>
      </trkpt>
      <trkpt lat="44.06008" lon="5.39506">
        <ele>703</ele>
        <time>2015-11-01T14:12:46Z</time>
      </trkpt>
      <trkpt lat="44.05969" lon="5.39546">
        <ele>707</ele>
        <time>2015-11-01T14:14:46Z</time>
      </trkpt>
      <trkpt lat="44.05992" lon="5.39597">
        <ele>711</ele>
        <time>2015-11-01T14:16:46Z</time>
      </trkpt>
      <trkpt lat="44.05957" lon="5.39579">
        <ele>710</ele>
        <time>2015-11-01T14:18:46Z</time>
      </trkpt>
      <trkpt lat="44.06153" lon="5.39876">
        <ele>737</ele>
        <time>2015-11-01T14:20:46Z</time>
      </trkpt>
      <trkpt lat="44.06235" lon="5.40014">
        <ele>747</ele>
        <time>2015-11-01T14:22:46Z</time>
      </trkpt>
      <trkpt lat="44.06327" lon="5.40065">
        <ele>739</ele>
        <time>2015-11-01T14:24:46Z</time>
      </trkpt>
      <trkpt lat="44.06375" lon="5.40084">
        <ele>733</ele>
        <time>2015-11-01T14:26:46Z</time>
      </trkpt>
      <trkpt lat="44.06416" lon="5.40118">
        <ele>731</ele>
        <time>2015-11-01T14:28:46Z</time>
      </trkpt>
      <trkpt lat="44.06456" lon="5.40131">
        <ele>735</ele>
        <time>2015-11-01T14:30:46Z</time>
      </trkpt>
      <trkpt lat="44.06505" lon="5.40098">
        <ele>733</ele>
        <time>2015-11-01T14:32:46Z</time>
      </trkpt>
      <trkpt lat="44.06543" lon="5.40074">
        <ele>731</ele>
        <time>2015-11-01T14:34:46Z</time>
      </trkpt>
      <trkpt lat="44.0675" lon="5.40138">
        <ele>722</ele>
        <time>2015-11-01T14:36:46Z</time>
      </trkpt>
      <trkpt lat="44.06846" lon="5.40157">
        <ele>719</ele>
        <time>2015-11-01T14:38:46Z</time>
      </trkpt>
      <trkpt lat="44.06997" lon="5.40262">
        <ele>712</ele>
        <time>2015-11-01T14:40:46Z</time>
      </trkpt>
      <trkpt lat="44.07255" lon="5.4032">
        <ele>714</ele>
        <time>2015-11-01T14:42:46Z</time>
      </trkpt>
      <trkpt lat="44.07384" lon="5.40355">
        <ele>716</ele>
        <time>2015-11-01T14:44:46Z</time>
      </trkpt>
      <trkpt lat="44.07475" lon="5.40341">
        <ele>712</ele>
        <time>2015-11-01T14:46:46Z</time>
      </trkpt>
      <trkpt lat="44.0782" lon="5.40116">
        <ele>697</ele>
        <time>2015-11-01T14:48:46Z</time>
      </trkpt>
      <trkpt lat="44.07947" lon="5.40092">
        <ele>703</ele>
        <time>2015-11-01T14:50:46Z</time>
      </trkpt>
      <trkpt lat="44.08045" lon="5.40126">
        <ele>705</ele>
        <time>2015-11-01T14:52:46Z</time>
      </trkpt>
      <trkpt lat="44.08123" lon="5.40147">
        <ele>706</ele>
        <time>2015-11-01T14:54:46Z</time>
      </trkpt>
      <trkpt lat="44.08207" lon="5.40166">
        <ele>706</ele>
        <time>2015-11-01T14:56:46Z</time>
      </trkpt>
      <trkpt lat="44.08301" lon="5.40151">
        <ele>707</ele>
        <time>2015-11-01T14:58:46Z</time>
      </trkpt>
      <trkpt lat="44.08403" lon="5.40232">
        <ele>710</ele>
        <time>2015-11-01T15:00:46Z</time>
      </trkpt>
      <trkpt lat="44.08393" lon="5.40273">
        <ele>712</ele>
        <time>2015-11-01T15:02:46Z</time>
      </trkpt>
      <trkpt lat="44.0853" lon="5.40326">
        <ele>713</ele>
        <time>2015-11-01T15:04:46Z</time>
      </trkpt>
      <trkpt lat="44.08822" lon="5.40678">
        <ele>712</ele>
        <time>2015-11-01T15:06:46Z</time>
      </trkpt>
      <trkpt lat="44.08941" lon="5.40698">
        <ele>706</ele>
        <time>2015-11-01T15:08:46Z</time>
      </trkpt>
      <trkpt lat="44.08996" lon="5.40693">
        <ele>717</ele>
        <time>2015-11-01T15:10:46Z</time>
      </trkpt>
      <trkpt lat="44.09043" lon="5.40658">
        <ele>717</ele>
        <time>2015-11-01T15:12:46Z</time>
      </trkpt>
      <trkpt lat="44.09144" lon="5.40665">
        <ele>728</ele>
        <time>2015-11-01T15:14:46Z</time>
      </trkpt>
      <trkpt lat="44.09232" lon="5.40679">
        <ele>732</ele>
        <time>2015-11-01T15:16:46Z</time>
      </trkpt>
      <trkpt lat="44.09159" lon="5.40717">
        <ele>746</ele>
        <time>2015-11-01T15:18:46Z</time>
      </trkpt>
      <trkpt lat="44.09143" lon="5.40759">
        <ele>757</ele>
        <time>2015-11-01T15:20:46Z</time>
      </trkpt>
      <trkpt lat="44.09174" lon="5.4093">
        <ele>767</ele>
        <time>2015-11-01T15:22:46Z</time>
      </trkpt>
      <trkpt lat="44.09294" lon="5.41142">
        <ele>778</ele>
        <time>2015-11-01T15:24:46Z</time>
      </trkpt>
      <trkpt lat="44.09094" lon="5.41377">
        <ele>784</ele>
        <time>2015-11-01T15:26:46Z</time>
      </trkpt>
      <trkpt lat="44.09076" lon="5.4142">
        <ele>786</ele>
        <time>2015-11-01T15:28:46Z</time>
      </trkpt>
      <trkpt lat="44.09063" lon="5.41596">
        <ele>794</ele>
        <time>2015-11-01T15:30:46Z</time>
      </trkpt>
    </trkseg>
  </trk>
</gpx>